Time;durP1;ratioP1;P1;durP2;ratioP2;P2;SDS_P1;SDS_P2;PMS_P1;PMS_P2;Temp;Humidity;BMP_temperature;BMP_pressure;BME280_temperature;BME280_humidity;BME280_pressure;Samples;Min_cycle;Max_cycle;Signal;HPM_P1;HPM_P2
2023/02/02 00:01:30;;;;;;;6.75;2.42;;;;;;;;;;5053328;28;20025;-74
2023/02/02 00:03:57;;;;;;;9.23;3.00;;;;;;;;;;5053406;28;20025;-74
2023/02/02 00:06:23;;;;;;;8.07;2.53;;;;;;;;;;5053017;28;20033;-73
2023/02/02 00:08:49;;;;;;;10.07;3.00;;;;;;;;;;5053254;28;20374;-74
2023/02/02 00:11:16;;;;;;;6.50;2.10;;;;;;;;;;5053080;28;20447;-69
2023/02/02 00:13:42;;;;;;;8.95;2.80;;;;;;;;;;5053443;28;20029;-68
2023/02/02 00:16:26;;;;;;;7.13;2.55;;;;;;;;;;5053401;28;20076;-71
2023/02/02 00:18:53;;;;;;;11.65;3.33;;;;;;;;;;5052965;28;20041;-72
2023/02/02 00:21:19;;;;;;;9.02;2.25;;;;;;;;;;5052812;28;20481;-60
2023/02/02 00:23:45;;;;;;;9.70;3.00;;;;;;;;;;5052996;28;20029;-72
2023/02/02 00:26:11;;;;;;;6.10;1.77;;;;;;;;;;5053201;28;20105;-74
2023/02/02 00:28:37;;;;;;;8.30;2.67;;;;;;;;;;5052711;28;20036;-73
2023/02/02 00:31:03;;;;;;;8.93;2.65;;;;;;;;;;5052755;28;20155;-74
2023/02/02 00:33:29;;;;;;;9.68;2.78;;;;;;;;;;5052405;28;20032;-74
2023/02/02 00:35:55;;;;;;;10.15;2.85;;;;;;;;;;5052273;28;20096;-72
2023/02/02 00:38:21;;;;;;;8.75;2.40;;;;;;;;;;5052326;28;20029;-74
2023/02/02 00:40:47;;;;;;;9.77;3.20;;;;;;;;;;5052597;28;20024;-73
2023/02/02 00:43:13;;;;;;;8.90;2.97;;;;;;;;;;5052765;28;20112;-61
2023/02/02 00:45:39;;;;;;;11.57;2.70;;;;;;;;;;5052931;28;20389;-74
2023/02/02 00:48:05;;;;;;;8.27;2.75;;;;;;;;;;5052349;28;20103;-74
2023/02/02 00:50:31;;;;;;;8.65;2.53;;;;;;;;;;5052427;28;20419;-69
2023/02/02 00:53:00;;;;;;;8.65;2.35;;;;;;;;;;5052522;28;20060;-67
2023/02/02 00:55:26;;;;;;;7.13;2.40;;;;;;;;;;5052020;28;20477;-69
2023/02/02 00:57:53;;;;;;;7.97;2.40;;;;;;;;;;5052300;28;20021;-68
2023/02/02 01:00:22;;;;;;;8.73;2.45;;;;;;;;;;5051930;28;20029;-68
2023/02/02 01:02:48;;;;;;;8.63;2.20;;;;;;;;;;5052064;28;20025;-64
2023/02/02 01:05:14;;;;;;;10.00;2.47;;;;;;;;;;5051946;28;20025;-69
2023/02/02 01:07:40;;;;;;;7.82;2.35;;;;;;;;;;5052363;28;20527;-67
2023/02/02 01:10:08;;;;;;;8.85;2.80;;;;;;;;;;5034168;28;20401;-68
2023/02/02 01:12:34;;;;;;;9.18;2.47;;;;;;;;;;5051895;28;20443;-70
2023/02/02 01:15:01;;;;;;;7.85;2.20;;;;;;;;;;5051917;28;20020;-68
2023/02/02 01:17:27;;;;;;;8.90;2.70;;;;;;;;;;5051660;28;20036;-68
2023/02/02 01:19:53;;;;;;;8.23;2.65;;;;;;;;;;5033931;28;20370;-69
2023/02/02 01:22:19;;;;;;;7.80;2.80;;;;;;;;;;5051713;28;20036;-69
2023/02/02 01:24:45;;;;;;;6.18;2.03;;;;;;;;;;5051681;28;20029;-69
2023/02/02 01:27:11;;;;;;;7.57;2.30;;;;;;;;;;5052048;28;20102;-65
2023/02/02 01:29:37;;;;;;;6.50;1.83;;;;;;;;;;5051566;28;20430;-70
2023/02/02 01:32:03;;;;;;;6.88;2.00;;;;;;;;;;5051805;28;20025;-65
2023/02/02 01:34:29;;;;;;;6.75;2.17;;;;;;;;;;5051393;28;20029;-70
2023/02/02 01:36:55;;;;;;;8.98;2.60;;;;;;;;;;5051591;28;20032;-70
2023/02/02 01:39:20;;;;;;;7.10;2.13;;;;;;;;;;5051128;28;20098;-69
2023/02/02 01:41:46;;;;;;;9.95;3.28;;;;;;;;;;5051592;28;20027;-67
2023/02/02 01:44:31;;;;;;;7.88;2.80;;;;;;;;;;5051564;28;20047;-69
2023/02/02 01:46:57;;;;;;;8.73;2.83;;;;;;;;;;5051681;28;20059;-70
2023/02/02 01:49:23;;;;;;;9.40;2.50;;;;;;;;;;5050235;28;20016;-68
2023/02/02 01:51:57;;;;;;;6.38;1.95;;;;;;;;;;5051494;28;20024;-69
2023/02/02 01:54:32;;;;;;;7.55;2.38;;;;;;;;;;5050898;28;20060;-69
2023/02/02 01:57:09;;;;;;;9.07;2.43;;;;;;;;;;5050980;28;20028;-66
2023/02/02 01:59:35;;;;;;;8.88;3.08;;;;;;;;;;5050985;28;20073;-69
2023/02/02 02:02:02;;;;;;;8.38;2.55;;;;;;;;;;5050988;28;20028;-71
2023/02/02 02:04:29;;;;;;;11.02;2.85;;;;;;;;;;5050966;28;20094;-69
2023/02/02 02:06:55;;;;;;;7.25;2.30;;;;;;;;;;5050817;28;20032;-70
2023/02/02 02:09:21;;;;;;;6.18;2.15;;;;;;;;;;5050568;28;20029;-69
2023/02/02 02:11:47;;;;;;;6.20;2.15;;;;;;;;;;5050781;28;20501;-69
2023/02/02 02:16:59;;;;;;;;;;;;;;;;;;5051586;28;20063;-69
2023/02/02 02:26:32;;;;;;;6.72;2.22;;;;;;;;;;5050490;28;19967;-69
2023/02/02 02:28:34;;;;;;;8.07;2.33;;;;;;;;;;5050812;28;20111;-68
2023/02/02 02:31:06;;;;;;;6.15;2.38;;;;;;;;;;5050795;28;20052;-68
2023/02/02 02:33:32;;;;;;;7.90;2.33;;;;;;;;;;5050198;28;20472;-70
2023/02/02 02:36:04;;;;;;;7.32;2.35;;;;;;;;;;5050850;28;20241;-67
2023/02/02 02:38:36;;;;;;;8.27;2.17;;;;;;;;;;5050271;28;20044;-70
2023/02/02 02:41:10;;;;;;;7.53;2.38;;;;;;;;;;5050446;28;20025;-69
2023/02/02 02:43:41;;;;;;;6.15;2.10;;;;;;;;;;5050430;28;20117;-70
2023/02/02 02:46:07;;;;;;;8.18;2.45;;;;;;;;;;5050786;28;20469;-66
2023/02/02 02:48:33;;;;;;;6.80;2.03;;;;;;;;;;5050245;28;20021;-68
2023/02/02 02:51:22;;;;;;;6.03;2.00;;;;;;;;;;5050504;28;20025;-69
2023/02/02 02:53:48;;;;;;;5.82;2.05;;;;;;;;;;5037904;28;20439;-70
2023/02/02 02:56:33;;;;;;;7.60;2.38;;;;;;;;;;5050546;28;20029;-64
2023/02/02 02:59:09;;;;;;;6.72;2.20;;;;;;;;;;5050534;28;20489;-69
2023/02/02 03:02:01;;;;;;;7.97;2.60;;;;;;;;;;5054342;28;20504;-69
2023/02/02 03:04:27;;;;;;;7.28;2.60;;;;;;;;;;5054311;28;20036;-69
2023/02/02 03:07:16;;;;;;;4.25;2.05;;;;;;;;;;5054214;28;20033;-69
2023/02/02 03:09:43;;;;;;;7.53;2.30;;;;;;;;;;5054636;28;20025;-66
2023/02/02 03:12:10;;;;;;;7.07;2.22;;;;;;;;;;5054392;28;20033;-68
2023/02/02 03:14:36;;;;;;;5.07;1.88;;;;;;;;;;5054050;28;20110;-69
2023/02/02 03:17:02;;;;;;;7.75;2.38;;;;;;;;;;5054341;28;20108;-69
2023/02/02 03:19:28;;;;;;;8.05;2.30;;;;;;;;;;5053994;28;20468;-67
2023/02/02 03:21:54;;;;;;;5.75;2.00;;;;;;;;;;5054234;28;20087;-67
2023/02/02 03:24:20;;;;;;;6.20;2.25;;;;;;;;;;5053913;28;20025;-67
2023/02/02 03:26:46;;;;;;;7.18;2.10;;;;;;;;;;5054056;28;20021;-69
2023/02/02 03:29:13;;;;;;;7.22;2.42;;;;;;;;;;5054421;28;20051;-63
2023/02/02 03:31:39;;;;;;;9.15;2.22;;;;;;;;;;5054216;28;20036;-69
2023/02/02 03:34:05;;;;;;;5.82;2.13;;;;;;;;;;5053797;28;20025;-69
2023/02/02 03:36:31;;;;;;;7.10;1.75;;;;;;;;;;5053604;28;20385;-68
2023/02/02 03:38:57;;;;;;;6.95;2.53;;;;;;;;;;5053771;28;20033;-68
2023/02/02 03:41:23;;;;;;;7.40;1.90;;;;;;;;;;5053559;28;20029;-69
2023/02/02 03:43:49;;;;;;;7.15;2.15;;;;;;;;;;5053743;28;20064;-69
2023/02/02 03:46:14;;;;;;;6.78;2.30;;;;;;;;;;5053415;28;20025;-65
2023/02/02 03:48:40;;;;;;;7.38;1.92;;;;;;;;;;5054001;28;20063;-67
2023/02/02 03:51:11;;;;;;;7.22;1.90;;;;;;;;;;5053646;28;20477;-66
2023/02/02 03:53:38;;;;;;;6.05;2.22;;;;;;;;;;5053026;28;20021;-69
2023/02/02 03:56:04;;;;;;;8.68;2.30;;;;;;;;;;5053619;28;20133;-69
2023/02/02 03:58:30;;;;;;;6.60;2.03;;;;;;;;;;5053153;28;20021;-65
2023/02/02 04:01:03;;;;;;;6.82;1.98;;;;;;;;;;5035546;28;20033;-69
2023/02/02 04:03:29;;;;;;;9.68;2.15;;;;;;;;;;5053189;28;20045;-67
2023/02/02 04:05:55;;;;;;;5.18;1.60;;;;;;;;;;5053201;28;20036;-68
2023/02/02 04:08:21;;;;;;;6.70;2.13;;;;;;;;;;5053027;28;20370;-66
2023/02/02 04:10:47;;;;;;;6.57;2.13;;;;;;;;;;5052567;28;20060;-64
2023/02/02 04:13:14;;;;;;;9.40;2.50;;;;;;;;;;5052779;28;20041;-67
2023/02/02 04:15:40;;;;;;;6.32;2.10;;;;;;;;;;5053257;28;20098;-65
2023/02/02 04:18:06;;;;;;;6.20;1.92;;;;;;;;;;5053085;28;20414;-68
2023/02/02 04:20:32;;;;;;;6.00;2.00;;;;;;;;;;5052841;28;20029;-69
2023/02/02 04:22:58;;;;;;;8.75;2.28;;;;;;;;;;5052995;28;20033;-70
2023/02/02 04:25:24;;;;;;;8.93;2.30;;;;;;;;;;5051800;28;20021;-70
2023/02/02 04:27:50;;;;;;;7.68;2.33;;;;;;;;;;5052544;28;20036;-69
2023/02/02 04:30:18;;;;;;;6.00;2.00;;;;;;;;;;5052970;28;20016;-69
2023/02/02 04:32:44;;;;;;;8.85;2.67;;;;;;;;;;5052305;28;20029;-69
2023/02/02 04:35:10;;;;;;;6.15;1.98;;;;;;;;;;5052783;28;20025;-68
2023/02/02 04:37:36;;;;;;;4.72;1.80;;;;;;;;;;5052431;28;20513;-69
2023/02/02 04:40:02;;;;;;;5.72;1.80;;;;;;;;;;5052675;28;20057;-69
2023/02/02 04:42:31;;;;;;;5.10;1.70;;;;;;;;;;5052575;28;20489;-69
2023/02/02 04:44:57;;;;;;;5.70;1.98;;;;;;;;;;5052655;28;20029;-66
2023/02/02 04:47:22;;;;;;;10.07;2.55;;;;;;;;;;5052344;28;20100;-69
2023/02/02 04:49:49;;;;;;;5.25;1.45;;;;;;;;;;5034486;28;20901;-70
2023/02/02 04:52:15;;;;;;;7.05;2.30;;;;;;;;;;5052590;28;20032;-68
2023/02/02 04:54:41;;;;;;;4.75;1.88;;;;;;;;;;5052645;28;20396;-68
2023/02/02 04:57:07;;;;;;;6.53;2.00;;;;;;;;;;5052261;28;20021;-69
2023/02/02 04:59:33;;;;;;;3.47;1.83;;;;;;;;;;5052046;28;20853;-69
2023/02/02 05:02:00;;;;;;;7.03;1.58;;;;;;;;;;5052105;28;20053;-66
2023/02/02 05:04:26;;;;;;;6.93;2.10;;;;;;;;;;5052105;28;20100;-70
2023/02/02 05:06:52;;;;;;;6.32;2.03;;;;;;;;;;5051561;28;20033;-69
2023/02/02 05:09:18;;;;;;;7.60;1.88;;;;;;;;;;5052173;28;20067;-69
2023/02/02 05:11:44;;;;;;;5.47;2.10;;;;;;;;;;5051772;28;20049;-64
2023/02/02 05:14:11;;;;;;;6.18;1.75;;;;;;;;;;5052101;28;20214;-66
2023/02/02 05:16:38;;;;;;;6.28;1.77;;;;;;;;;;5051742;28;20017;-70
2023/02/02 05:19:04;;;;;;;5.78;1.70;;;;;;;;;;5051796;28;20072;-64
2023/02/02 05:21:30;;;;;;;9.45;2.25;;;;;;;;;;5051621;28;20031;-67
2023/02/02 05:23:57;;;;;;;8.25;1.92;;;;;;;;;;5051705;28;20103;-70
2023/02/02 05:26:25;;;;;;;6.80;1.63;;;;;;;;;;5051867;28;20100;-66
2023/02/02 05:28:51;;;;;;;8.25;2.72;;;;;;;;;;5051476;28;20393;-67
2023/02/02 05:31:17;;;;;;;8.23;1.73;;;;;;;;;;5051690;28;20043;-70
2023/02/02 05:33:43;;;;;;;5.63;1.85;;;;;;;;;;5051914;28;20029;-69
2023/02/02 05:36:09;;;;;;;8.20;1.77;;;;;;;;;;5051917;28;20405;-67
2023/02/02 05:38:35;;;;;;;8.02;1.98;;;;;;;;;;5051305;28;20033;-70
2023/02/02 05:41:02;;;;;;;7.53;1.98;;;;;;;;;;5051435;28;20460;-70
2023/02/02 05:43:28;;;;;;;7.70;1.90;;;;;;;;;;5051417;28;20025;-63
2023/02/02 05:45:55;;;;;;;6.70;1.65;;;;;;;;;;5051200;28;20029;-71
2023/02/02 05:48:21;;;;;;;7.18;2.28;;;;;;;;;;5051314;28;20033;-70
2023/02/02 05:50:55;;;;;;;5.63;1.77;;;;;;;;;;5051207;28;20021;-66
2023/02/02 05:53:21;;;;;;;6.25;1.73;;;;;;;;;;5051396;28;20037;-66
2023/02/02 05:55:47;;;;;;;6.40;1.88;;;;;;;;;;5050897;28;20393;-68
2023/02/02 05:58:13;;;;;;;6.00;1.67;;;;;;;;;;5051301;28;20025;-69
2023/02/02 06:00:39;;;;;;;5.28;1.42;;;;;;;;;;5050781;28;20481;-68
2023/02/02 06:03:05;;;;;;;6.28;2.10;;;;;;;;;;5050978;28;20035;-67
2023/02/02 06:05:31;;;;;;;5.50;2.35;;;;;;;;;;5050895;28;20024;-69
2023/02/02 06:07:57;;;;;;;5.22;1.60;;;;;;;;;;5051147;28;20029;-65
2023/02/02 06:10:22;;;;;;;8.07;2.13;;;;;;;;;;5050873;28;20052;-66
2023/02/02 06:12:48;;;;;;;5.13;1.85;;;;;;;;;;5050935;28;20627;-68
2023/02/02 06:15:14;;;;;;;8.65;1.88;;;;;;;;;;5051119;28;20040;-67
2023/02/02 06:17:40;;;;;;;5.10;1.60;;;;;;;;;;5050530;28;20029;-64
2023/02/02 06:20:06;;;;;;;7.63;2.47;;;;;;;;;;5051005;28;20032;-61
2023/02/02 06:22:32;;;;;;;5.20;1.73;;;;;;;;;;5050475;28;20057;-69
2023/02/02 06:24:58;;;;;;;6.05;1.67;;;;;;;;;;5051015;28;20021;-70
2023/02/02 06:27:24;;;;;;;6.40;1.95;;;;;;;;;;5051159;28;20018;-73
2023/02/02 06:29:50;;;;;;;5.50;1.80;;;;;;;;;;5050715;28;20029;-73
2023/02/02 06:32:16;;;;;;;8.00;2.15;;;;;;;;;;5051449;28;20458;-69
2023/02/02 06:34:42;;;;;;;5.82;1.92;;;;;;;;;;5050648;28;20108;-70
2023/02/02 06:37:08;;;;;;;6.75;1.63;;;;;;;;;;5051141;28;20028;-67
2023/02/02 06:39:34;;;;;;;7.93;1.90;;;;;;;;;;5050517;28;20413;-70
2023/02/02 06:42:00;;;;;;;6.43;2.03;;;;;;;;;;5050725;28;20035;-70
2023/02/02 06:44:26;;;;;;;4.97;1.67;;;;;;;;;;5050574;28;20455;-63
2023/02/02 06:46:52;;;;;;;7.88;2.22;;;;;;;;;;5050190;28;20100;-63
2023/02/02 06:49:18;;;;;;;5.85;2.00;;;;;;;;;;5050723;28;20112;-75
2023/02/02 06:51:46;;;;;;;7.30;1.77;;;;;;;;;;5050597;28;20025;-64
2023/02/02 06:54:13;;;;;;;9.35;1.90;;;;;;;;;;5050959;28;20094;-67
2023/02/02 06:56:39;;;;;;;6.93;1.88;;;;;;;;;;5050482;28;20025;-71
2023/02/02 06:59:05;;;;;;;9.02;1.88;;;;;;;;;;5050504;28;20090;-76
2023/02/02 07:01:31;;;;;;;9.00;2.85;;;;;;;;;;5050263;28;20025;-69
2023/02/02 07:03:57;;;;;;;8.27;2.10;;;;;;;;;;5050061;28;20029;-72
2023/02/02 07:06:25;;;;;;;8.85;2.80;;;;;;;;;;5050426;28;20086;-71
2023/02/02 07:08:51;;;;;;;9.63;2.65;;;;;;;;;;5049655;28;20086;-71
2023/02/02 07:11:17;;;;;;;7.35;2.65;;;;;;;;;;5050288;28;20020;-66
2023/02/02 07:13:44;;;;;;;8.48;2.80;;;;;;;;;;5050112;28;20060;-67
2023/02/02 07:16:11;;;;;;;6.90;2.67;;;;;;;;;;5050665;28;20448;-68
2023/02/02 07:18:38;;;;;;;6.70;2.90;;;;;;;;;;5049746;28;20036;-65
2023/02/02 07:21:04;;;;;;;7.28;2.58;;;;;;;;;;5050229;28;20033;-67
2023/02/02 07:23:30;;;;;;;9.48;3.20;;;;;;;;;;5050292;28;20017;-71
2023/02/02 07:26:03;;;;;;;8.93;2.97;;;;;;;;;;5050432;28;20031;-71
2023/02/02 07:28:29;;;;;;;8.18;3.17;;;;;;;;;;5048633;28;20080;-63
2023/02/02 07:30:55;;;;;;;7.80;3.05;;;;;;;;;;5048701;28;20028;-71
2023/02/02 07:33:21;;;;;;;10.02;3.03;;;;;;;;;;5047736;28;20131;-69
2023/02/02 07:35:47;;;;;;;11.35;3.47;;;;;;;;;;5049432;28;20049;-70
2023/02/02 07:38:13;;;;;;;12.18;3.65;;;;;;;;;;5048388;28;20047;-70
2023/02/02 07:40:39;;;;;;;11.30;3.58;;;;;;;;;;5049191;28;20087;-63
2023/02/02 07:43:05;;;;;;;8.70;3.67;;;;;;;;;;5049965;28;20104;-63
2023/02/02 07:45:31;;;;;;;9.65;3.30;;;;;;;;;;5049869;28;20417;-65
2023/02/02 07:47:58;;;;;;;8.15;3.30;;;;;;;;;;5053008;28;20021;-64
2023/02/02 07:50:24;;;;;;;10.07;3.47;;;;;;;;;;5053674;28;20440;-67
2023/02/02 07:52:51;;;;;;;8.88;3.70;;;;;;;;;;5053113;28;20033;-66
2023/02/02 07:55:17;;;;;;;10.85;4.05;;;;;;;;;;5053824;28;20020;-62
2023/02/02 07:57:43;;;;;;;8.25;3.80;;;;;;;;;;5053553;28;20029;-67
2023/02/02 08:00:09;;;;;;;15.00;3.95;;;;;;;;;;5053680;28;20044;-68
2023/02/02 08:02:36;;;;;;;10.18;3.80;;;;;;;;;;5053040;28;20111;-64
2023/02/02 08:05:02;;;;;;;11.77;4.55;;;;;;;;;;5053837;28;20419;-68
2023/02/02 08:07:28;;;;;;;10.70;4.07;;;;;;;;;;5053133;28;20109;-68
2023/02/02 08:09:54;;;;;;;9.18;4.25;;;;;;;;;;5052912;28;20070;-69
2023/02/02 08:12:22;;;;;;;8.25;3.75;;;;;;;;;;5050893;28;20040;-69
2023/02/02 08:14:48;;;;;;;8.85;4.53;;;;;;;;;;5051556;28;20029;-70
2023/02/02 08:17:14;;;;;;;11.38;4.50;;;;;;;;;;5051783;28;20040;-70
2023/02/02 08:19:40;;;;;;;11.63;4.10;;;;;;;;;;5047894;28;20037;-73
2023/02/02 08:22:06;;;;;;;7.32;3.28;;;;;;;;;;5053250;28;20036;-71
2023/02/02 08:24:32;;;;;;;8.23;4.03;;;;;;;;;;5052393;28;20029;-71
2023/02/02 08:26:58;;;;;;;10.38;4.63;;;;;;;;;;5053146;28;20021;-72
2023/02/02 08:29:24;;;;;;;9.40;4.30;;;;;;;;;;5053066;28;20052;-66
2023/02/02 08:31:50;;;;;;;10.38;4.55;;;;;;;;;;5052536;28;20032;-64
2023/02/02 08:34:16;;;;;;;8.63;3.80;;;;;;;;;;5053288;28;20114;-69
2023/02/02 08:36:42;;;;;;;10.18;4.20;;;;;;;;;;5052710;28;20029;-68
2023/02/02 08:39:10;;;;;;;8.70;3.45;;;;;;;;;;5052785;28;20033;-70
2023/02/02 08:41:36;;;;;;;12.90;4.30;;;;;;;;;;5052636;28;20458;-67
2023/02/02 08:44:09;;;;;;;12.55;4.38;;;;;;;;;;5052701;28;20081;-71
2023/02/02 08:46:35;;;;;;;8.82;3.95;;;;;;;;;;5034479;28;20385;-65
2023/02/02 08:49:01;;;;;;;8.52;3.95;;;;;;;;;;5052631;28;20033;-70
2023/02/02 08:51:27;;;;;;;12.50;3.85;;;;;;;;;;5052725;28;20074;-65
2023/02/02 08:53:53;;;;;;;9.30;3.47;;;;;;;;;;5052228;28;20100;-67
2023/02/02 08:56:20;;;;;;;9.85;3.30;;;;;;;;;;5052907;28;20032;-67
2023/02/02 08:58:46;;;;;;;8.48;4.15;;;;;;;;;;5051987;28;20021;-72
2023/02/02 09:01:16;;;;;;;8.32;3.65;;;;;;;;;;5052427;28;20039;-70
2023/02/02 09:03:43;;;;;;;10.27;3.25;;;;;;;;;;5052198;28;20063;-65
2023/02/02 09:06:10;;;;;;;13.30;3.72;;;;;;;;;;5052228;28;20041;-64
2023/02/02 09:08:36;;;;;;;7.93;3.55;;;;;;;;;;5051986;28;20420;-68
2023/02/02 09:11:03;;;;;;;10.63;3.47;;;;;;;;;;5052291;28;20469;-67
2023/02/02 09:13:29;;;;;;;9.27;3.65;;;;;;;;;;5052076;28;20020;-63
2023/02/02 09:15:59;;;;;;;8.20;3.25;;;;;;;;;;5052250;28;20025;-65
2023/02/02 09:18:25;;;;;;;8.18;3.25;;;;;;;;;;5052115;28;20052;-69
2023/02/02 09:20:50;;;;;;;7.20;2.95;;;;;;;;;;5051741;28;20056;-68
2023/02/02 09:23:16;;;;;;;7.25;3.33;;;;;;;;;;5052265;28;20040;-70
2023/02/02 09:25:42;;;;;;;6.90;3.22;;;;;;;;;;5051700;28;20099;-67
2023/02/02 09:28:08;;;;;;;8.40;3.33;;;;;;;;;;5051935;28;20104;-72
2023/02/02 09:30:34;;;;;;;7.88;3.40;;;;;;;;;;5051698;28;20021;-67
2023/02/02 09:33:00;;;;;;;8.43;3.45;;;;;;;;;;5051427;28;20549;-72
2023/02/02 09:35:26;;;;;;;5.45;3.03;;;;;;;;;;5051633;28;20021;-72
2023/02/02 09:37:52;;;;;;;7.70;3.17;;;;;;;;;;5051405;28;20032;-67
2023/02/02 09:40:19;;;;;;;8.20;3.20;;;;;;;;;;5051944;28;20055;-71
2023/02/02 09:42:53;;;;;;;8.25;3.10;;;;;;;;;;5051559;28;20032;-64
2023/02/02 09:45:23;;;;;;;7.53;3.22;;;;;;;;;;5051889;28;20056;-68
2023/02/02 09:47:49;;;;;;;7.75;3.15;;;;;;;;;;5051486;28;20372;-68
2023/02/02 09:50:18;;;;;;;6.97;2.88;;;;;;;;;;5051559;28;20079;-67
2023/02/02 09:53:10;;;;;;;7.10;3.17;;;;;;;;;;5051128;28;20028;-70
2023/02/02 09:55:38;;;;;;;5.25;2.65;;;;;;;;;;5046820;28;20040;-67
2023/02/02 09:58:04;;;;;;;7.18;2.80;;;;;;;;;;5051414;28;20029;-66
2023/02/02 10:00:29;;;;;;;6.32;2.72;;;;;;;;;;5050858;28;20106;-64
2023/02/02 10:03:02;;;;;;;7.13;3.17;;;;;;;;;;5051383;28;20036;-64
2023/02/02 10:05:31;;;;;;;8.02;2.67;;;;;;;;;;5051283;28;20025;-70
2023/02/02 10:08:01;;;;;;;5.88;2.60;;;;;;;;;;5051332;28;20025;-71
2023/02/02 10:10:31;;;;;;;7.22;3.00;;;;;;;;;;5050396;28;20109;-66
2023/02/02 10:12:57;;;;;;;7.30;3.10;;;;;;;;;;5051217;28;20047;-70
2023/02/02 10:15:34;;;;;;;6.45;2.35;;;;;;;;;;5051244;28;20441;-71
2023/02/02 10:18:19;;;;;;;8.35;2.63;;;;;;;;;;5051273;28;20036;-69
2023/02/02 10:20:48;;;;;;;7.13;2.70;;;;;;;;;;5050876;28;20033;-67
2023/02/02 10:23:17;;;;;;;7.47;2.95;;;;;;;;;;5051159;28;20032;-68
2023/02/02 10:25:48;;;;;;;6.05;2.97;;;;;;;;;;5050776;28;20090;-70
2023/02/02 10:28:27;;;;;;;10.32;2.67;;;;;;;;;;5051051;28;20032;-65
2023/02/02 10:31:02;;;;;;;7.32;2.72;;;;;;;;;;5050730;28;20179;-67
2023/02/02 10:33:38;;;;;;;7.88;2.70;;;;;;;;;;5050948;28;20386;-70
2023/02/02 10:36:07;;;;;;;5.70;2.50;;;;;;;;;;5050756;28;20031;-67
2023/02/02 10:38:57;;;;;;;5.20;2.13;;;;;;;;;;5050684;28;20496;-65
2023/02/02 10:41:29;;;;;;;5.30;2.30;;;;;;;;;;5050835;28;20111;-67
2023/02/02 10:43:56;;;;;;;6.47;2.53;;;;;;;;;;5050714;28;20029;-64
2023/02/02 10:46:37;;;;;;;6.38;2.15;;;;;;;;;;5049982;28;20044;-64
2023/02/02 10:49:13;;;;;;;4.38;2.42;;;;;;;;;;5050778;28;20088;-66
2023/02/02 10:51:40;;;;;;;6.68;2.47;;;;;;;;;;5050497;28;20109;-72
2023/02/02 10:54:15;;;;;;;6.40;2.30;;;;;;;;;;5050848;28;20025;-71
2023/02/02 10:56:45;;;;;;;7.20;2.60;;;;;;;;;;5050548;28;20060;-69
2023/02/02 10:59:17;;;;;;;6.20;2.38;;;;;;;;;;5050217;28;20069;-68
2023/02/02 11:01:44;;;;;;;5.53;1.90;;;;;;;;;;5050408;28;20029;-72
2023/02/02 11:06:55;;;;;;;5.87;2.03;;;;;;;;;;5046580;28;20064;-70
2023/02/02 11:09:23;;;;;;;7.47;1.90;;;;;;;;;;5048846;28;20317;-67
2023/02/02 11:11:51;;;;;;;5.18;2.08;;;;;;;;;;5048939;28;20048;-72
2023/02/02 11:14:40;;;;;;;8.00;2.15;;;;;;;;;;5048761;28;20037;-68
2023/02/02 11:17:06;;;;;;;6.32;1.90;;;;;;;;;;5037132;28;20064;-67
2023/02/02 11:19:33;;;;;;;5.30;2.40;;;;;;;;;;5048805;28;20100;-64
2023/02/02 11:22:03;;;;;;;7.13;1.98;;;;;;;;;;5053477;28;20063;-63
2023/02/02 11:24:29;;;;;;;5.53;2.35;;;;;;;;;;5054089;28;20087;-63
2023/02/02 11:27:21;;;;;;;5.50;1.90;;;;;;;;;;5054206;28;20024;-63
2023/02/02 11:29:48;;;;;;;4.97;1.83;;;;;;;;;;5016271;28;20123;-69
2023/02/02 11:32:31;;;;;;;3.15;1.48;;;;;;;;;;5053994;28;20111;-68
2023/02/02 11:35:00;;;;;;;7.85;2.08;;;;;;;;;;5054110;28;20029;-64
2023/02/02 11:37:26;;;;;;;4.38;1.70;;;;;;;;;;5052402;28;20055;-72
2023/02/02 11:39:52;;;;;;;6.32;1.95;;;;;;;;;;5053359;28;20493;-63
2023/02/02 11:42:20;;;;;;;4.80;1.50;;;;;;;;;;5054186;28;20025;-64
2023/02/02 11:44:47;;;;;;;4.47;1.55;;;;;;;;;;5048809;28;20029;-70
2023/02/02 11:47:26;;;;;;;6.40;1.83;;;;;;;;;;5048733;28;20056;-65
2023/02/02 11:49:54;;;;;;;6.93;1.33;;;;;;;;;;5052203;28;20104;-64
2023/02/02 11:52:24;;;;;;;5.75;2.15;;;;;;;;;;5051857;28;20035;-64
2023/02/02 11:54:56;;;;;;;5.97;2.00;;;;;;;;;;5049569;28;20056;-73
2023/02/02 11:57:23;;;;;;;4.03;1.48;;;;;;;;;;5053351;28;20555;-65
2023/02/02 12:00:14;;;;;;;5.22;1.52;;;;;;;;;;5052895;28;20123;-69
2023/02/02 12:02:48;;;;;;;5.03;1.67;;;;;;;;;;5052713;28;20029;-68
2023/02/02 12:05:30;;;;;;;8.15;1.90;;;;;;;;;;5052730;28;20032;-69
2023/02/02 12:07:56;;;;;;;6.63;1.60;;;;;;;;;;5035184;28;20120;-66
2023/02/02 12:10:27;;;;;;;5.15;1.67;;;;;;;;;;5053036;28;20107;-64
2023/02/02 12:12:53;;;;;;;5.82;2.30;;;;;;;;;;5052545;28;20052;-67
2023/02/02 12:15:22;;;;;;;4.78;1.90;;;;;;;;;;5051584;28;20114;-72
2023/02/02 12:17:50;;;;;;;3.38;1.20;;;;;;;;;;5052258;28;20036;-70
2023/02/02 12:20:22;;;;;;;5.07;1.73;;;;;;;;;;5053296;28;20041;-63
2023/02/02 12:23:05;;;;;;;5.18;1.50;;;;;;;;;;5053363;28;20017;-70
2023/02/02 12:25:31;;;;;;;4.63;1.58;;;;;;;;;;5051129;28;20473;-63
2023/02/02 12:28:17;;;;;;;4.22;1.40;;;;;;;;;;5051871;28;20397;-69
2023/02/02 12:30:56;;;;;;;4.00;1.48;;;;;;;;;;4998120;28;20131;-64
2023/02/02 12:33:23;;;;;;;3.83;0.95;;;;;;;;;;5048289;28;20489;-67
2023/02/02 12:35:58;;;;;;;3.70;1.30;;;;;;;;;;5051673;28;20060;-70
2023/02/02 12:38:46;;;;;;;6.60;1.23;;;;;;;;;;5048951;28;20525;-68
2023/02/02 12:41:12;;;;;;;3.75;1.13;;;;;;;;;;5050155;28;20029;-71
2023/02/02 12:43:43;;;;;;;6.93;1.70;;;;;;;;;;5050624;28;20025;-66
2023/02/02 12:46:17;;;;;;;5.45;1.35;;;;;;;;;;5051319;28;20420;-64
2023/02/02 12:48:55;;;;;;;4.43;1.58;;;;;;;;;;5048644;28;20048;-63
2023/02/02 12:51:21;;;;;;;5.50;1.40;;;;;;;;;;5050518;28;20381;-66
2023/02/02 12:53:53;;;;;;;5.30;1.48;;;;;;;;;;5050776;28;20017;-71
2023/02/02 12:56:32;;;;;;;4.28;1.40;;;;;;;;;;5051605;28;20512;-69
2023/02/02 12:59:01;;;;;;;5.32;1.77;;;;;;;;;;5051262;28;20032;-69
2023/02/02 13:01:33;;;;;;;7.47;1.70;;;;;;;;;;5051753;28;20066;-66
2023/02/02 13:04:05;;;;;;;5.78;1.38;;;;;;;;;;5052544;28;20158;-70
2023/02/02 13:06:55;;;;;;;4.88;1.63;;;;;;;;;;5051447;28;20421;-70
2023/02/02 13:09:27;;;;;;;3.97;1.08;;;;;;;;;;5052394;28;20469;-66
2023/02/02 13:11:56;;;;;;;3.75;1.08;;;;;;;;;;5052033;28;20036;-65
2023/02/02 13:14:24;;;;;;;3.75;1.05;;;;;;;;;;5051829;28;20029;-69
2023/02/02 13:16:52;;;;;;;7.22;1.55;;;;;;;;;;5050935;28;20041;-69
2023/02/02 13:19:36;;;;;;;3.50;1.20;;;;;;;;;;5048101;28;20392;-66
2023/02/02 13:22:04;;;;;;;2.65;1.15;;;;;;;;;;5052117;28;20036;-71
2023/02/02 13:24:32;;;;;;;6.20;1.65;;;;;;;;;;5049597;28;20036;-68
2023/02/02 13:26:59;;;;;;;4.10;1.23;;;;;;;;;;5049934;28;20044;-67
2023/02/02 13:29:25;;;;;;;8.77;1.75;;;;;;;;;;5051453;28;20450;-64
2023/02/02 13:32:03;;;;;;;5.40;1.38;;;;;;;;;;5051967;28;20104;-67
2023/02/02 13:34:40;;;;;;;5.45;1.98;;;;;;;;;;5051404;28;20022;-67
2023/02/02 13:37:27;;;;;;;3.17;0.90;;;;;;;;;;5051887;28;20021;-69
2023/02/02 13:39:58;;;;;;;3.88;1.27;;;;;;;;;;5049392;28;20037;-68
2023/02/02 13:42:46;;;;;;;5.20;1.70;;;;;;;;;;5051787;28;20473;-63
2023/02/02 13:45:27;;;;;;;3.63;1.35;;;;;;;;;;5051631;28;20074;-66
2023/02/02 13:47:58;;;;;;;4.15;1.13;;;;;;;;;;5051826;28;20054;-68
2023/02/02 13:50:29;;;;;;;7.32;1.40;;;;;;;;;;5051978;28;20477;-66
2023/02/02 13:53:28;;;;;;;2.42;0.93;;;;;;;;;;5051862;28;20029;-64
2023/02/02 13:56:03;;;;;;;4.72;1.13;;;;;;;;;;5051406;28;20032;-66
2023/02/02 13:58:52;;;;;;;6.53;1.75;;;;;;;;;;5051072;28;20044;-63
2023/02/02 14:01:19;;;;;;;3.85;1.20;;;;;;;;;;5051438;28;20112;-67
2023/02/02 14:03:52;;;;;;;2.83;0.98;;;;;;;;;;5049726;28;20059;-68
2023/02/02 14:06:19;;;;;;;3.20;0.95;;;;;;;;;;5051113;28;20082;-70
2023/02/02 14:08:52;;;;;;;4.25;1.23;;;;;;;;;;5051044;28;20060;-71
2023/02/02 14:11:24;;;;;;;5.47;1.23;;;;;;;;;;5050689;28;20090;-70
2023/02/02 14:16:36;;;;;;;4.05;1.10;;;;;;;;;;5051184;28;20147;-63
2023/02/02 14:19:03;;;;;;;4.53;1.35;;;;;;;;;;5049402;28;20047;-65
2023/02/02 14:21:32;;;;;;;4.30;1.20;;;;;;;;;;5051038;28;20029;-62
2023/02/02 14:24:02;;;;;;;2.88;0.90;;;;;;;;;;5049756;28;20033;-69
2023/02/02 14:26:52;;;;;;;3.83;1.35;;;;;;;;;;5047381;28;20021;-69
2023/02/02 14:29:38;;;;;;;4.88;1.20;;;;;;;;;;5032039;28;20033;-68
2023/02/02 14:32:05;;;;;;;;;;;;;;;;;;5051008;28;20035;-70
2023/02/02 14:34:34;;;;;;;8.35;1.65;;;;;;;;;;5049490;28;19913;-70
2023/02/02 14:37:19;;;;;;;3.80;1.33;;;;;;;;;;5050919;28;20029;-67
2023/02/02 14:40:04;;;;;;;3.92;0.80;;;;;;;;;;5050424;28;20508;-65
2023/02/02 14:45:34;;;;;;;3.63;0.95;;;;;;;;;;5050683;28;20504;-69
2023/02/02 14:48:01;;;;;;;4.30;1.00;;;;;;;;;;5032890;28;20025;-64
2023/02/02 14:50:36;;;;;;;5.95;1.48;;;;;;;;;;5049995;28;20029;-66
2023/02/02 14:53:07;;;;;;;2.93;0.90;;;;;;;;;;5047629;28;20032;-63
2023/02/02 14:55:34;;;;;;;5.43;1.25;;;;;;;;;;5049538;28;20017;-63
2023/02/02 14:58:02;;;;;;;3.67;1.00;;;;;;;;;;5053164;28;20423;-67
2023/02/02 15:00:32;;;;;;;3.70;1.13;;;;;;;;;;5053107;28;20069;-64
2023/02/02 15:03:21;;;;;;;5.13;1.08;;;;;;;;;;5052273;28;20021;-66
2023/02/02 15:06:00;;;;;;;2.40;0.68;;;;;;;;;;5054446;28;20106;-68
2023/02/02 15:08:27;;;;;;;6.70;1.25;;;;;;;;;;5053039;28;20033;-62
2023/02/02 15:10:56;;;;;;;4.80;1.30;;;;;;;;;;5054405;28;20032;-69
2023/02/02 15:13:24;;;;;;;4.00;1.13;;;;;;;;;;5054647;28;20090;-68